sensor_id;sensor_type;location;lat;lon;timestamp;pressure;altitude;pressure_sealevel;temperature;humidity
40998;BME280;26740;45.944;12.480;2023-02-20T00:00:44;102115.81;;;7.92;100.00
40998;BME280;26740;45.944;12.480;2023-02-20T00:03:14;102114.81;;;7.72;100.00
40998;BME280;26740;45.944;12.480;2023-02-20T00:05:40;102113.06;;;7.64;100.00
40998;BME280;26740;45.944;12.480;2023-02-20T00:08:06;102120.03;;;7.60;100.00
40998;BME280;26740;45.944;12.480;2023-02-20T00:10:31;102121.38;;;7.64;100.00
40998;BME280;26740;45.944;12.480;2023-02-20T00:12:57;102121.31;;;7.57;100.00
40998;BME280;26740;45.944;12.480;2023-02-20T00:15:23;102123.19;;;7.57;100.00
40998;BME280;26740;45.944;12.480;2023-02-20T00:17:48;102122.84;;;7.38;100.00
40998;BME280;26740;45.944;12.480;2023-02-20T00:20:16;102120.50;;;7.64;100.00
40998;BME280;26740;45.944;12.480;2023-02-20T00:22:42;102135.72;;;7.81;100.00
40998;BME280;26740;45.944;12.480;2023-02-20T00:25:08;102124.13;;;7.64;100.00
40998;BME280;26740;45.944;12.480;2023-02-20T00:27:33;102136.03;;;7.65;100.00
40998;BME280;26740;45.944;12.480;2023-02-20T00:29:59;102134.38;;;7.70;100.00
40998;BME280;26740;45.944;12.480;2023-02-20T00:32:24;102137.72;;;7.66;100.00
40998;BME280;26740;45.944;12.480;2023-02-20T00:34:50;102144.31;;;7.65;100.00
40998;BME280;26740;45.944;12.480;2023-02-20T00:37:16;102152.69;;;7.50;100.00
40998;BME280;26740;45.944;12.480;2023-02-20T00:39:41;102156.72;;;7.47;100.00
40998;BME280;26740;45.944;12.480;2023-02-20T00:42:07;102156.16;;;7.58;100.00
40998;BME280;26740;45.944;12.480;2023-02-20T00:44:32;102151.78;;;7.43;100.00
40998;BME280;26740;45.944;12.480;2023-02-20T00:46:58;102146.06;;;7.44;100.00
40998;BME280;26740;45.944;12.480;2023-02-20T00:49:23;102147.16;;;7.50;100.00
40998;BME280;26740;45.944;12.480;2023-02-20T00:51:49;102144.84;;;7.53;100.00
40998;BME280;26740;45.944;12.480;2023-02-20T00:54:14;102148.63;;;7.46;100.00
40998;BME280;26740;45.944;12.480;2023-02-20T00:56:40;102141.75;;;7.35;100.00
40998;BME280;26740;45.944;12.480;2023-02-20T00:59:06;102140.28;;;7.39;100.00
40998;BME280;26740;45.944;12.480;2023-02-20T01:01:31;102147.53;;;7.40;100.00
40998;BME280;26740;45.944;12.480;2023-02-20T01:03:57;102144.84;;;7.53;100.00
40998;BME280;26740;45.944;12.480;2023-02-20T01:06:22;102138.84;;;7.43;100.00
40998;BME280;26740;45.944;12.480;2023-02-20T01:08:48;102136.09;;;7.43;100.00
40998;BME280;26740;45.944;12.480;2023-02-20T01:11:14;102137.84;;;7.51;100.00
40998;BME280;26740;45.944;12.480;2023-02-20T01:13:39;102139.44;;;7.67;100.00
40998;BME280;26740;45.944;12.480;2023-02-20T01:16:05;102142.53;;;7.50;100.00
40998;BME280;26740;45.944;12.480;2023-02-20T01:18:31;102143.88;;;7.61;100.00
40998;BME280;26740;45.944;12.480;2023-02-20T01:20:56;102150.44;;;7.60;100.00
40998;BME280;26740;45.944;12.480;2023-02-20T01:23:22;102154.31;;;7.66;100.00
40998;BME280;26740;45.944;12.480;2023-02-20T01:25:47;102143.06;;;7.67;100.00
40998;BME280;26740;45.944;12.480;2023-02-20T01:28:13;102148.25;;;7.77;100.00
40998;BME280;26740;45.944;12.480;2023-02-20T01:30:38;102148.38;;;7.69;100.00
40998;BME280;26740;45.944;12.480;2023-02-20T01:33:04;102151.25;;;7.82;100.00
40998;BME280;26740;45.944;12.480;2023-02-20T01:35:29;102163.81;;;7.56;100.00
40998;BME280;26740;45.944;12.480;2023-02-20T01:37:57;102149.47;;;7.74;100.00
40998;BME280;26740;45.944;12.480;2023-02-20T01:40:24;102148.06;;;7.78;100.00
40998;BME280;26740;45.944;12.480;2023-02-20T01:42:50;102155.63;;;7.70;100.00
40998;BME280;26740;45.944;12.480;2023-02-20T01:47:52;102151.31;;;7.89;100.00
40998;BME280;26740;45.944;12.480;2023-02-20T01:50:21;102155.91;;;7.82;100.00
40998;BME280;26740;45.944;12.480;2023-02-20T01:52:50;102149.47;;;7.74;100.00
40998;BME280;26740;45.944;12.480;2023-02-20T02:00:51;102155.38;;;7.65;100.00
40998;BME280;26740;45.944;12.480;2023-02-20T02:03:21;102149.66;;;7.66;100.00
40998;BME280;26740;45.944;12.480;2023-02-20T02:05:52;102156.22;;;7.65;100.00
40998;BME280;26740;45.944;12.480;2023-02-20T02:08:20;102156.81;;;7.60;100.00
40998;BME280;26740;45.944;12.480;2023-02-20T02:10:58;102155.78;;;7.62;100.00
40998;BME280;26740;45.944;12.480;2023-02-20T02:13:26;102155.78;;;7.62;100.00
40998;BME280;26740;45.944;12.480;2023-02-20T02:16:00;102161.06;;;7.56;100.00
40998;BME280;26740;45.944;12.480;2023-02-20T02:37:49;102161.81;;;7.44;100.00
40998;BME280;26740;45.944;12.480;2023-02-20T02:40:25;102162.38;;;7.39;100.00
40998;BME280;26740;45.944;12.480;2023-02-20T02:43:08;102162.38;;;7.39;100.00
40998;BME280;26740;45.944;12.480;2023-02-20T02:45:47;102161.53;;;7.38;100.00
40998;BME280;26740;45.944;12.480;2023-02-20T02:48:37;102162.53;;;7.52;100.00
40998;BME280;26740;45.944;12.480;2023-02-20T02:51:09;102161.88;;;7.78;100.00
40998;BME280;26740;45.944;12.480;2023-02-20T02:53:37;102170.13;;;7.72;100.00
40998;BME280;26740;45.944;12.480;2023-02-20T02:56:03;102171.00;;;7.51;100.00
40998;BME280;26740;45.944;12.480;2023-02-20T02:58:47;102173.84;;;7.57;100.00
40998;BME280;26740;45.944;12.480;2023-02-20T03:01:16;102176.69;;;7.71;100.00
40998;BME280;26740;45.944;12.480;2023-02-20T03:03:44;102177.34;;;7.73;100.00
40998;BME280;26740;45.944;12.480;2023-02-20T03:06:15;102185.94;;;7.56;100.00
40998;BME280;26740;45.944;12.480;2023-02-20T03:08:45;102186.22;;;7.40;100.00
40998;BME280;26740;45.944;12.480;2023-02-20T03:11:18;102179.13;;;7.31;100.00
40998;BME280;26740;45.944;12.480;2023-02-20T03:14:01;102180.69;;;7.40;100.00
40998;BME280;26740;45.944;12.480;2023-02-20T03:16:56;102185.63;;;7.73;100.00
40998;BME280;26740;45.944;12.480;2023-02-20T03:19:32;102181.03;;;7.52;100.00
40998;BME280;26740;45.944;12.480;2023-02-20T03:22:01;102194.16;;;7.50;100.00
40998;BME280;26740;45.944;12.480;2023-02-20T03:24:32;102183.69;;;7.67;100.00
40998;BME280;26740;45.944;12.480;2023-02-20T03:27:18;102183.34;;;7.55;100.00
40998;BME280;26740;45.944;12.480;2023-02-20T03:29:46;102188.19;;;7.46;100.00
40998;BME280;26740;45.944;12.480;2023-02-20T03:32:13;102186.22;;;7.40;100.00
40998;BME280;26740;45.944;12.480;2023-02-20T03:34:59;102191.81;;;7.47;100.00
40998;BME280;26740;45.944;12.480;2023-02-20T03:37:46;102190.44;;;7.36;100.00
40998;BME280;26740;45.944;12.480;2023-02-20T03:40:31;102188.16;;;7.68;100.00
40998;BME280;26740;45.944;12.480;2023-02-20T03:43:18;102201.50;;;7.36;100.00
40998;BME280;26740;45.944;12.480;2023-02-20T03:46:05;102206.31;;;7.27;100.00
40998;BME280;26740;45.944;12.480;2023-02-20T03:48:40;102215.44;;;7.28;100.00
40998;BME280;26740;45.944;12.480;2023-02-20T03:51:09;102224.56;;;7.28;100.00
40998;BME280;26740;45.944;12.480;2023-02-20T03:53:35;102222.00;;;7.27;100.00
40998;BME280;26740;45.944;12.480;2023-02-20T03:56:04;102217.09;;;7.22;100.00
40998;BME280;26740;45.944;12.480;2023-02-20T03:58:36;102216.81;;;7.17;100.00
40998;BME280;26740;45.944;12.480;2023-02-20T04:01:05;102212.97;;;7.18;100.00
40998;BME280;26740;45.944;12.480;2023-02-20T04:03:37;102215.53;;;7.41;100.00
40998;BME280;26740;45.944;12.480;2023-02-20T04:06:06;102204.78;;;7.25;100.00
40998;BME280;26740;45.944;12.480;2023-02-20T04:08:41;102214.06;;;7.17;100.00
40998;BME280;26740;45.944;12.480;2023-02-20T04:11:32;102212.06;;;7.11;100.00
40998;BME280;26740;45.944;12.480;2023-02-20T04:13:56;102207.06;;;6.99;100.00
40998;BME280;26740;45.944;12.480;2023-02-20T04:16:23;102210.94;;;7.05;100.00
40998;BME280;26740;45.944;12.480;2023-02-20T04:18:49;102210.09;;;7.05;100.00
40998;BME280;26740;45.944;12.480;2023-02-20T04:21:33;102211.69;;;7.14;100.00
40998;BME280;26740;45.944;12.480;2023-02-20T04:24:07;102219.59;;;7.02;100.00
40998;BME280;26740;45.944;12.480;2023-02-20T04:26:34;102219.75;;;6.94;100.00
40998;BME280;26740;45.944;12.480;2023-02-20T04:29:00;102224.72;;;6.83;100.00
40998;BME280;26740;45.944;12.480;2023-02-20T04:31:26;102244.97;;;6.91;100.00
40998;BME280;26740;45.944;12.480;2023-02-20T04:33:52;102249.19;;;6.87;100.00
40998;BME280;26740;45.944;12.480;2023-02-20T04:36:17;102246.34;;;6.80;100.00
40998;BME280;26740;45.944;12.480;2023-02-20T04:38:43;102254.31;;;6.90;100.00
40998;BME280;26740;45.944;12.480;2023-02-20T04:41:08;102249.19;;;6.87;100.00
40998;BME280;26740;45.944;12.480;2023-02-20T04:43:34;102248.69;;;6.98;100.00
40998;BME280;26740;45.944;12.480;2023-02-20T04:46:00;102255.91;;;6.99;100.00
40998;BME280;26740;45.944;12.480;2023-02-20T04:48:25;102254.19;;;6.98;100.00
40998;BME280;26740;45.944;12.480;2023-02-20T04:50:51;102255.91;;;6.99;100.00
40998;BME280;26740;45.944;12.480;2023-02-20T04:53:17;102254.84;;;7.00;100.00
40998;BME280;26740;45.944;12.480;2023-02-20T04:55:43;102249.97;;;7.02;100.00
40998;BME280;26740;45.944;12.480;2023-02-20T04:58:09;102246.66;;;6.92;100.00
40998;BME280;26740;45.944;12.480;2023-02-20T05:00:34;102250.03;;;6.72;100.00
40998;BME280;26740;45.944;12.480;2023-02-20T05:03:00;102253.59;;;6.66;100.00
40998;BME280;26740;45.944;12.480;2023-02-20T05:05:27;102237.78;;;6.75;100.00
40998;BME280;26740;45.944;12.480;2023-02-20T05:07:58;102246.94;;;6.60;100.00
40998;BME280;26740;45.944;12.480;2023-02-20T05:10:25;102252.56;;;6.37;100.00
40998;BME280;26740;45.944;12.480;2023-02-20T05:12:51;102246.44;;;6.42;100.00
40998;BME280;26740;45.944;12.480;2023-02-20T05:15:17;102247.41;;;6.64;100.00
40998;BME280;26740;45.944;12.480;2023-02-20T05:17:42;102254.63;;;6.35;100.00
40998;BME280;26740;45.944;12.480;2023-02-20T05:20:09;102241.72;;;6.36;100.00
40998;BME280;26740;45.944;12.480;2023-02-20T05:22:34;102251.09;;;5.97;100.00
40998;BME280;26740;45.944;12.480;2023-02-20T05:25:00;102251.16;;;5.65;100.00
40998;BME280;26740;45.944;12.480;2023-02-20T05:27:26;102259.81;;;5.39;100.00
40998;BME280;26740;45.944;12.480;2023-02-20T05:29:54;102265.44;;;5.23;100.00
40998;BME280;26740;45.944;12.480;2023-02-20T05:32:22;102262.38;;;5.18;100.00
40998;BME280;26740;45.944;12.480;2023-02-20T05:34:48;102264.16;;;5.10;100.00
40998;BME280;26740;45.944;12.480;2023-02-20T05:37:15;102265.41;;;5.00;100.00
40998;BME280;26740;45.944;12.480;2023-02-20T05:39:42;102267.22;;;4.84;100.00
40998;BME280;26740;45.944;12.480;2023-02-20T05:42:08;102259.13;;;4.83;100.00
40998;BME280;26740;45.944;12.480;2023-02-20T05:44:34;102265.22;;;4.70;100.00
40998;BME280;26740;45.944;12.480;2023-02-20T05:46:59;102261.09;;;4.66;100.00
40998;BME280;26740;45.944;12.480;2023-02-20T05:49:25;102263.22;;;4.55;100.00
40998;BME280;26740;45.944;12.480;2023-02-20T05:51:51;102256.84;;;4.55;100.00
40998;BME280;26740;45.944;12.480;2023-02-20T05:54:18;102256.47;;;4.58;100.00
40998;BME280;26740;45.944;12.480;2023-02-20T05:56:44;102261.84;;;4.51;100.00
40998;BME280;26740;45.944;12.480;2023-02-20T05:59:12;102265.81;;;4.41;100.00
40998;BME280;26740;45.944;12.480;2023-02-20T06:01:38;102260.50;;;4.39;100.00
40998;BME280;26740;45.944;12.480;2023-02-20T06:04:03;102259.66;;;4.39;100.00
40998;BME280;26740;45.944;12.480;2023-02-20T06:06:37;102266.38;;;4.28;100.00
40998;BME280;26740;45.944;12.480;2023-02-20T06:09:04;102277.16;;;4.37;100.00
40998;BME280;26740;45.944;12.480;2023-02-20T06:11:32;102276.88;;;4.24;100.00
40998;BME280;26740;45.944;12.480;2023-02-20T06:13:58;102280.19;;;4.11;100.00
40998;BME280;26740;45.944;12.480;2023-02-20T06:16:29;102293.22;;;4.09;100.00
40998;BME280;26740;45.944;12.480;2023-02-20T06:18:55;102297.19;;;4.07;100.00
40998;BME280;26740;45.944;12.480;2023-02-20T06:21:22;102294.59;;;4.13;100.00
40998;BME280;26740;45.944;12.480;2023-02-20T06:23:50;102298.16;;;4.39;100.00
40998;BME280;26740;45.944;12.480;2023-02-20T06:26:16;102301.81;;;4.79;100.00
40998;BME280;26740;45.944;12.480;2023-02-20T06:28:43;102304.38;;;4.80;100.00
40998;BME280;26740;45.944;12.480;2023-02-20T06:31:09;102312.97;;;4.85;100.00
40998;BME280;26740;45.944;12.480;2023-02-20T06:33:36;102311.94;;;5.18;100.00
40998;BME280;26740;45.944;12.480;2023-02-20T06:36:03;102315.03;;;5.15;100.00
40998;BME280;26740;45.944;12.480;2023-02-20T06:38:28;102315.78;;;5.08;100.00
40998;BME280;26740;45.944;12.480;2023-02-20T06:40:54;102311.16;;;5.32;100.00
40998;BME280;26740;45.944;12.480;2023-02-20T06:43:19;102315.84;;;5.55;100.00
40998;BME280;26740;45.944;12.480;2023-02-20T06:45:45;102325.13;;;5.77;100.00
40998;BME280;26740;45.944;12.480;2023-02-20T06:48:12;102323.63;;;5.97;100.00
40998;BME280;26740;45.944;12.480;2023-02-20T06:50:41;102328.13;;;6.13;100.00
40998;BME280;26740;45.944;12.480;2023-02-20T06:53:07;102320.66;;;6.37;100.00
40998;BME280;26740;45.944;12.480;2023-02-20T06:55:33;102331.06;;;6.50;100.00
40998;BME280;26740;45.944;12.480;2023-02-20T06:57:59;102323.25;;;6.83;100.00
40998;BME280;26740;45.944;12.480;2023-02-20T07:00:25;102327.44;;;6.94;100.00
40998;BME280;26740;45.944;12.480;2023-02-20T07:02:50;102332.31;;;7.28;100.00
40998;BME280;26740;45.944;12.480;2023-02-20T07:05:16;102334.63;;;7.25;100.00
40998;BME280;26740;45.944;12.480;2023-02-20T07:07:41;102332.13;;;7.66;100.00
40998;BME280;26740;45.944;12.480;2023-02-20T07:10:07;102342.19;;;8.17;100.00
40998;BME280;26740;45.944;12.480;2023-02-20T07:12:33;102334.69;;;8.39;100.00
40998;BME280;26740;45.944;12.480;2023-02-20T07:15:03;102337.72;;;8.72;100.00
40998;BME280;26740;45.944;12.480;2023-02-20T07:17:29;102337.84;;;8.99;100.00
40998;BME280;26740;45.944;12.480;2023-02-20T07:19:55;102340.72;;;8.78;100.00
40998;BME280;26740;45.944;12.480;2023-02-20T07:22:20;102334.97;;;8.79;100.00
40998;BME280;26740;45.944;12.480;2023-02-20T07:24:50;102333.22;;;9.13;100.00
40998;BME280;26740;45.944;12.480;2023-02-20T07:27:16;102341.03;;;9.44;100.00
40998;BME280;26740;45.944;12.480;2023-02-20T07:29:44;102338.09;;;9.04;100.00
40998;BME280;26740;45.944;12.480;2023-02-20T07:32:10;102352.59;;;9.61;100.00
40998;BME280;26740;45.944;12.480;2023-02-20T07:34:35;102344.94;;;9.77;100.00
40998;BME280;26740;45.944;12.480;2023-02-20T07:37:01;102349.00;;;9.74;100.00
40998;BME280;26740;45.944;12.480;2023-02-20T07:39:26;102341.78;;;9.86;100.00
40998;BME280;26740;45.944;12.480;2023-02-20T07:41:52;102344.81;;;10.38;100.00
40998;BME280;26740;45.944;12.480;2023-02-20T07:44:17;102350.97;;;10.20;100.00
40998;BME280;26740;45.944;12.480;2023-02-20T07:46:43;102352.00;;;9.86;100.00
40998;BME280;26740;45.944;12.480;2023-02-20T07:49:08;102347.91;;;9.62;100.00
40998;BME280;26740;45.944;12.480;2023-02-20T07:51:34;102348.63;;;10.31;100.00
40998;BME280;26740;45.944;12.480;2023-02-20T07:53:59;102349.28;;;10.53;100.00
40998;BME280;26740;45.944;12.480;2023-02-20T07:56:25;102351.84;;;10.61;100.00
40998;BME280;26740;45.944;12.480;2023-02-20T07:58:51;102346.44;;;11.38;100.00
40998;BME280;26740;45.944;12.480;2023-02-20T08:01:17;102350.47;;;12.19;100.00
40998;BME280;26740;45.944;12.480;2023-02-20T08:03:43;102344.59;;;12.78;100.00
40998;BME280;26740;45.944;12.480;2023-02-20T08:06:08;102344.19;;;13.48;100.00
40998;BME280;26740;45.944;12.480;2023-02-20T08:08:34;102348.00;;;13.96;100.00
40998;BME280;26740;45.944;12.480;2023-02-20T08:11:00;102347.44;;;13.26;100.00
40998;BME280;26740;45.944;12.480;2023-02-20T08:13:25;102348.22;;;13.15;100.00
40998;BME280;26740;45.944;12.480;2023-02-20T08:15:51;102348.16;;;14.13;100.00
40998;BME280;26740;45.944;12.480;2023-02-20T08:18:17;102350.34;;;15.41;100.00
40998;BME280;26740;45.944;12.480;2023-02-20T08:20:42;102343.59;;;15.53;100.00
40998;BME280;26740;45.944;12.480;2023-02-20T08:23:18;102342.47;;;17.24;93.20
40998;BME280;26740;45.944;12.480;2023-02-20T08:25:44;102345.25;;;17.68;90.75
40998;BME280;26740;45.944;12.480;2023-02-20T08:28:10;102344.16;;;18.24;84.51
40998;BME280;26740;45.944;12.480;2023-02-20T08:30:36;102351.22;;;17.99;81.84
40998;BME280;26740;45.944;12.480;2023-02-20T08:33:02;102349.00;;;17.52;84.83
40998;BME280;26740;45.944;12.480;2023-02-20T08:35:34;102349.41;;;17.16;87.89
40998;BME280;26740;45.944;12.480;2023-02-20T08:38:04;102353.38;;;18.19;84.88
40998;BME280;26740;45.944;12.480;2023-02-20T08:40:29;102353.44;;;19.57;79.24
40998;BME280;26740;45.944;12.480;2023-02-20T08:42:55;102351.03;;;20.12;76.04
40998;BME280;26740;45.944;12.480;2023-02-20T08:45:21;102341.44;;;20.34;73.03
40998;BME280;26740;45.944;12.480;2023-02-20T08:47:47;102338.28;;;20.87;69.29
40998;BME280;26740;45.944;12.480;2023-02-20T08:50:13;102325.00;;;20.92;69.68
40998;BME280;26740;45.944;12.480;2023-02-20T08:52:41;102331.72;;;21.07;70.35
40998;BME280;26740;45.944;12.480;2023-02-20T08:55:07;102325.09;;;21.47;66.82
40998;BME280;26740;45.944;12.480;2023-02-20T08:57:32;102331.00;;;21.51;65.56
40998;BME280;26740;45.944;12.480;2023-02-20T08:59:58;102331.69;;;21.22;64.98
40998;BME280;26740;45.944;12.480;2023-02-20T09:02:23;102323.34;;;20.81;67.03
40998;BME280;26740;45.944;12.480;2023-02-20T09:04:52;102316.72;;;21.21;66.78
40998;BME280;26740;45.944;12.480;2023-02-20T09:07:18;102315.31;;;21.19;62.14
40998;BME280;26740;45.944;12.480;2023-02-20T09:09:43;102320.59;;;21.36;63.72
40998;BME280;26740;45.944;12.480;2023-02-20T09:12:09;102316.06;;;21.40;60.21
40998;BME280;26740;45.944;12.480;2023-02-20T09:14:35;102316.81;;;19.67;65.50
40998;BME280;26740;45.944;12.480;2023-02-20T09:17:00;102310.06;;;19.68;64.65
40998;BME280;26740;45.944;12.480;2023-02-20T09:19:26;102305.53;;;19.73;64.95
40998;BME280;26740;45.944;12.480;2023-02-20T09:21:51;102304.94;;;19.45;66.38
40998;BME280;26740;45.944;12.480;2023-02-20T09:24:17;102302.50;;;20.41;62.80
40998;BME280;26740;45.944;12.480;2023-02-20T09:26:43;102301.66;;;20.15;61.78
40998;BME280;26740;45.944;12.480;2023-02-20T09:29:08;102305.03;;;19.76;62.10
40998;BME280;26740;45.944;12.480;2023-02-20T09:31:34;102302.22;;;19.81;64.24
40998;BME280;26740;45.944;12.480;2023-02-20T09:33:59;102305.91;;;20.12;63.46
40998;BME280;26740;45.944;12.480;2023-02-20T09:36:25;102302.13;;;19.45;63.14
40998;BME280;26740;45.944;12.480;2023-02-20T09:38:51;102307.97;;;19.33;62.42
40998;BME280;26740;45.944;12.480;2023-02-20T09:44:14;102292.50;;;19.41;63.91
40998;BME280;26740;45.944;12.480;2023-02-20T09:46:47;102294.81;;;19.54;66.41
40998;BME280;26740;45.944;12.480;2023-02-20T09:49:22;102293.19;;;20.10;63.39
40998;BME280;26740;45.944;12.480;2023-02-20T09:51:53;102294.53;;;20.84;60.58
40998;BME280;26740;45.944;12.480;2023-02-20T09:54:47;102297.41;;;20.53;57.67
40998;BME280;26740;45.944;12.480;2023-02-20T09:57:25;102289.28;;;20.16;57.74
40998;BME280;26740;45.944;12.480;2023-02-20T09:59:59;102294.31;;;19.78;60.39
40998;BME280;26740;45.944;12.480;2023-02-20T10:05:02;102287.31;;;22.12;59.22
40998;BME280;26740;45.944;12.480;2023-02-20T10:09:59;102294.66;;;23.63;48.20
40998;BME280;26740;45.944;12.480;2023-02-20T10:12:34;102302.25;;;23.48;47.77
40998;BME280;26740;45.944;12.480;2023-02-20T10:17:49;102295.44;;;22.82;48.59
40998;BME280;26740;45.944;12.480;2023-02-20T10:20:26;102307.16;;;22.07;48.55
40998;BME280;26740;45.944;12.480;2023-02-20T10:23:04;102315.13;;;20.95;50.30
40998;BME280;26740;45.944;12.480;2023-02-20T10:25:38;102302.09;;;21.04;50.30
40998;BME280;26740;45.944;12.480;2023-02-20T10:28:09;102309.09;;;21.17;48.85
40998;BME280;26740;45.944;12.480;2023-02-20T10:39:07;102285.03;;;20.23;56.11
40998;BME280;26740;45.944;12.480;2023-02-20T10:42:20;102287.56;;;22.15;49.00
40998;BME280;26740;45.944;12.480;2023-02-20T10:44:34;102294.75;;;22.90;48.12
40998;BME280;26740;45.944;12.480;2023-02-20T10:47:05;102293.97;;;22.61;46.85
40998;BME280;26740;45.944;12.480;2023-02-20T10:52:01;102274.94;;;21.68;47.74
40998;BME280;26740;45.944;12.480;2023-02-20T10:56:59;102274.41;;;21.06;50.13
40998;BME280;26740;45.944;12.480;2023-02-20T10:59:32;102275.41;;;20.66;53.84
40998;BME280;26740;45.944;12.480;2023-02-20T11:02:04;102269.22;;;19.76;54.26
40998;BME280;26740;45.944;12.480;2023-02-20T11:04:37;102273.25;;;19.12;58.16
40998;BME280;26740;45.944;12.480;2023-02-20T11:07:11;102259.56;;;19.51;55.15
40998;BME280;26740;45.944;12.480;2023-02-20T11:09:39;102271.13;;;19.55;59.27
40998;BME280;26740;45.944;12.480;2023-02-20T11:12:05;102271.72;;;19.67;53.95
40998;BME280;26740;45.944;12.480;2023-02-20T11:14:48;102256.50;;;19.68;59.99
40998;BME280;26740;45.944;12.480;2023-02-20T11:17:17;102252.78;;;17.89;63.26
40998;BME280;26740;45.944;12.480;2023-02-20T11:19:46;102254.94;;;18.99;57.61
40998;BME280;26740;45.944;12.480;2023-02-20T11:22:13;102256.19;;;18.76;59.30
40998;BME280;26740;45.944;12.480;2023-02-20T11:24:49;102250.63;;;20.06;54.86
40998;BME280;26740;45.944;12.480;2023-02-20T11:27:20;102241.22;;;20.72;56.55
40998;BME280;26740;45.944;12.480;2023-02-20T11:32:27;102237.84;;;20.60;51.01
40998;BME280;26740;45.944;12.480;2023-02-20T11:37:37;102229.78;;;19.97;53.76
40998;BME280;26740;45.944;12.480;2023-02-20T11:40:02;102231.75;;;19.81;53.61
40998;BME280;26740;45.944;12.480;2023-02-20T11:42:32;102221.28;;;19.61;55.82
40998;BME280;26740;45.944;12.480;2023-02-20T11:47:36;102215.59;;;18.56;58.52
40998;BME280;26740;45.944;12.480;2023-02-20T11:50:17;102227.69;;;18.14;60.87
40998;BME280;26740;45.944;12.480;2023-02-20T11:52:58;102226.25;;;18.54;58.84
40998;BME280;26740;45.944;12.480;2023-02-20T11:55:25;102215.28;;;19.26;61.46
40998;BME280;26740;45.944;12.480;2023-02-20T11:57:51;102212.84;;;19.92;54.94
40998;BME280;26740;45.944;12.480;2023-02-20T12:00:23;102210.28;;;19.59;56.82
40998;BME280;26740;45.944;12.480;2023-02-20T12:02:49;102215.31;;;19.37;56.24
40998;BME280;26740;45.944;12.480;2023-02-20T12:05:16;102205.09;;;19.00;58.42
40998;BME280;26740;45.944;12.480;2023-02-20T12:07:42;102219.38;;;17.92;59.85
40998;BME280;26740;45.944;12.480;2023-02-20T12:12:53;102210.41;;;17.95;60.27
40998;BME280;26740;45.944;12.480;2023-02-20T12:15:22;102211.50;;;17.94;61.66
40998;BME280;26740;45.944;12.480;2023-02-20T12:20:53;102201.00;;;16.98;65.58
40998;BME280;26740;45.944;12.480;2023-02-20T12:26:13;102208.22;;;17.43;64.91
40998;BME280;26740;45.944;12.480;2023-02-20T12:31:41;102201.66;;;18.34;66.32
40998;BME280;26740;45.944;12.480;2023-02-20T12:46:16;102181.31;;;17.79;61.57
40998;BME280;26740;45.944;12.480;2023-02-20T12:51:35;102173.03;;;17.95;62.56
40998;BME280;26740;45.944;12.480;2023-02-20T12:55:12;102161.72;;;18.90;61.02
40998;BME280;26740;45.944;12.480;2023-02-20T12:57:17;102157.88;;;19.27;56.83
40998;BME280;26740;45.944;12.480;2023-02-20T12:59:55;102159.19;;;17.88;60.33
40998;BME280;26740;45.944;12.480;2023-02-20T13:04:57;102148.97;;;18.77;59.21
40998;BME280;26740;45.944;12.480;2023-02-20T13:07:29;102141.84;;;17.64;62.86
40998;BME280;26740;45.944;12.480;2023-02-20T13:10:34;102138.50;;;16.80;69.95
40998;BME280;26740;45.944;12.480;2023-02-20T13:13:09;102131.97;;;16.97;68.21
40998;BME280;26740;45.944;12.480;2023-02-20T13:15:57;102119.03;;;17.23;75.54
40998;BME280;26740;45.944;12.480;2023-02-20T13:18:27;102122.53;;;18.15;62.50
40998;BME280;26740;45.944;12.480;2023-02-20T13:21:10;102108.66;;;18.46;60.77
40998;BME280;26740;45.944;12.480;2023-02-20T13:23:38;102100.69;;;19.52;60.70
40998;BME280;26740;45.944;12.480;2023-02-20T13:29:15;102109.75;;;17.92;65.75
40998;BME280;26740;45.944;12.480;2023-02-20T13:31:48;102101.13;;;18.77;61.63
40998;BME280;26740;45.944;12.480;2023-02-20T13:36:44;102089.03;;;18.77;60.00
40998;BME280;26740;45.944;12.480;2023-02-20T13:44:38;102074.34;;;17.54;66.43
40998;BME280;26740;45.944;12.480;2023-02-20T13:49:54;102068.84;;;17.69;64.98
40998;BME280;26740;45.944;12.480;2023-02-20T13:55:19;102072.19;;;17.29;69.33
40998;BME280;26740;45.944;12.480;2023-02-20T14:02:56;102066.09;;;17.04;69.42
40998;BME280;26740;45.944;12.480;2023-02-20T14:05:25;102067.88;;;16.39;71.41
40998;BME280;26740;45.944;12.480;2023-02-20T14:07:52;102060.75;;;16.04;79.89
40998;BME280;26740;45.944;12.480;2023-02-20T14:10:33;102063.59;;;16.32;74.58
40998;BME280;26740;45.944;12.480;2023-02-20T14:13:09;102073.09;;;16.80;68.35
40998;BME280;26740;45.944;12.480;2023-02-20T14:15:55;102072.63;;;17.15;69.35
40998;BME280;26740;45.944;12.480;2023-02-20T14:18:31;102068.06;;;17.04;72.79
40998;BME280;26740;45.944;12.480;2023-02-20T14:21:08;102052.22;;;17.62;66.82
40998;BME280;26740;45.944;12.480;2023-02-20T14:23:34;102054.97;;;17.52;65.02
40998;BME280;26740;45.944;12.480;2023-02-20T14:26:03;102058.19;;;17.71;67.16
40998;BME280;26740;45.944;12.480;2023-02-20T14:28:32;102056.31;;;17.07;66.42
40998;BME280;26740;45.944;12.480;2023-02-20T14:31:26;102058.34;;;16.84;69.66
40998;BME280;26740;45.944;12.480;2023-02-20T14:33:54;102048.88;;;16.19;73.78
40998;BME280;26740;45.944;12.480;2023-02-20T14:41:53;102055.22;;;16.09;71.73
40998;BME280;26740;45.944;12.480;2023-02-20T14:44:19;102057.31;;;16.46;75.25
40998;BME280;26740;45.944;12.480;2023-02-20T14:46:46;102043.72;;;16.11;73.93